Time;durP1;ratioP1;P1;durP2;ratioP2;P2;SDS_P1;SDS_P2;PMS_P1;PMS_P2;Temp;Humidity;BMP_temperature;BMP_pressure;BME280_temperature;BME280_humidity;BME280_pressure;Samples;Min_cycle;Max_cycle;Signal;HPM_P1;HPM_P2
2021/12/26 00:00:55;;;;;;;0.40;0.40;;;-8.90;99.90;;;;;;4929988;29;20218;-71
2021/12/26 00:03:23;;;;;;;0.40;0.40;;;-8.90;99.90;;;;;;4926028;29;20212;-70
2021/12/26 00:05:51;;;;;;;0.40;0.40;;;-8.80;99.90;;;;;;4921768;29;20218;-69
2021/12/26 00:08:18;;;;;;;0.40;0.40;;;-8.80;99.90;;;;;;4924058;29;20235;-69
2021/12/26 00:10:46;;;;;;;0.40;0.40;;;-8.80;99.90;;;;;;4924037;29;20223;-71
2021/12/26 00:13:13;;;;;;;0.40;0.40;;;-8.80;99.90;;;;;;4922042;29;20270;-71
2021/12/26 00:15:40;;;;;;;0.40;0.40;;;-8.90;99.90;;;;;;4922026;29;20274;-71
2021/12/26 00:18:09;;;;;;;0.30;0.30;;;-9.00;99.90;;;;;;4919734;29;20681;-71
2021/12/26 00:20:38;;;;;;;0.40;0.40;;;-9.20;99.90;;;;;;4929043;29;20712;-70
2021/12/26 00:23:05;;;;;;;0.40;0.40;;;-9.20;99.90;;;;;;4930928;29;20207;-71
2021/12/26 00:25:33;;;;;;;0.40;0.40;;;-9.30;99.90;;;;;;4934270;29;20207;-71
2021/12/26 00:28:00;;;;;;;0.40;0.40;;;-9.30;99.90;;;;;;4945307;28;20314;-70
2021/12/26 00:30:28;;;;;;;0.40;0.40;;;-9.40;99.90;;;;;;4933909;29;20259;-70
2021/12/26 00:32:55;;;;;;;0.40;0.40;;;-9.40;99.90;;;;;;4932969;29;20208;-71
2021/12/26 00:35:24;;;;;;;0.40;0.40;;;-9.40;99.90;;;;;;4930520;29;20208;-71
2021/12/26 00:37:52;;;;;;;0.40;0.40;;;-9.30;99.90;;;;;;4946503;28;20208;-71
2021/12/26 00:40:22;;;;;;;0.40;0.40;;;-9.40;99.90;;;;;;4923695;29;20223;-70
2021/12/26 00:42:51;;;;;;;0.40;0.40;;;-9.40;99.90;;;;;;4933383;29;20199;-69
2021/12/26 00:45:20;;;;;;;0.40;0.40;;;-9.50;99.90;;;;;;4928183;29;20204;-69
2021/12/26 00:47:47;;;;;;;0.40;0.40;;;;;;;;;;4925250;29;20244;-70
2021/12/26 00:50:16;;;;;;;0.40;0.40;;;;;;;;;;4927974;29;20230;-70
2021/12/26 00:52:44;;;;;;;0.40;0.40;;;-9.50;99.90;;;;;;4931756;28;20255;-71
2021/12/26 00:55:15;;;;;;;0.40;0.40;;;-9.60;99.90;;;;;;4930963;29;20219;-69
2021/12/26 00:57:42;;;;;;;0.40;0.40;;;-9.60;99.90;;;;;;4931390;29;20199;-71
2021/12/26 01:00:13;;;;;;;0.40;0.40;;;-9.70;99.90;;;;;;4932123;29;20202;-70
2021/12/26 01:02:40;;;;;;;0.40;0.40;;;-9.80;99.90;;;;;;4928736;29;20203;-71
2021/12/26 01:05:09;;;;;;;0.50;0.50;;;-9.80;99.90;;;;;;4930906;29;20208;-72
2021/12/26 01:07:46;;;;;;;0.40;0.40;;;-9.80;99.90;;;;;;4930564;29;20267;-71
2021/12/26 01:10:18;;;;;;;0.40;0.40;;;-9.90;99.90;;;;;;4930301;29;20230;-71
2021/12/26 01:12:47;;;;;;;0.40;0.40;;;-9.90;99.90;;;;;;4930104;29;20203;-71
2021/12/26 01:15:15;;;;;;;0.40;0.40;;;-9.80;99.90;;;;;;4930993;29;20206;-70
2021/12/26 01:17:48;;;;;;;0.40;0.40;;;-9.80;99.90;;;;;;4930267;29;20199;-71
2021/12/26 01:20:37;;;;;;;0.40;0.40;;;-9.80;99.90;;;;;;4925735;29;20235;-71
2021/12/26 01:23:04;;;;;;;0.40;0.40;;;-9.80;99.90;;;;;;4928186;29;20538;-71
2021/12/26 01:25:34;;;;;;;0.40;0.40;;;-9.80;99.90;;;;;;4934396;29;20207;-71
2021/12/26 01:28:01;;;;;;;0.40;0.40;;;-9.80;99.90;;;;;;4931346;29;20251;-71
2021/12/26 01:30:30;;;;;;;0.50;0.50;;;-9.90;99.90;;;;;;4929993;29;20254;-71
2021/12/26 01:32:58;;;;;;;0.40;0.40;;;-9.90;99.90;;;;;;4926624;29;20296;-71
2021/12/26 01:35:50;;;;;;;0.40;0.40;;;-9.80;99.90;;;;;;4927558;29;20223;-68
2021/12/26 01:38:31;;;;;;;0.40;0.40;;;-9.80;99.90;;;;;;4941855;28;20251;-71
2021/12/26 01:41:17;;;;;;;0.40;0.40;;;-9.80;99.90;;;;;;4930895;28;20234;-71
2021/12/26 01:44:19;;;;;;;0.40;0.40;;;-9.90;99.90;;;;;;4928691;29;20233;-72
2021/12/26 01:46:49;;;;;;;0.50;0.50;;;-9.90;99.90;;;;;;4929670;29;20271;-72
2021/12/26 01:49:22;;;;;;;0.40;0.40;;;-9.90;99.90;;;;;;4929572;29;20223;-71
2021/12/26 01:51:53;;;;;;;0.40;0.40;;;-9.90;99.90;;;;;;4929200;29;20250;-71
2021/12/26 01:54:29;;;;;;;0.30;0.30;;;-9.90;99.90;;;;;;4929605;29;20215;-71
2021/12/26 01:56:58;;;;;;;0.40;0.40;;;-9.90;99.90;;;;;;4929098;29;20242;-70
2021/12/26 01:59:25;;;;;;;0.40;0.40;;;-9.90;99.90;;;;;;4935330;29;20215;-70
2021/12/26 02:01:58;;;;;;;0.50;0.50;;;-9.90;99.90;;;;;;4928493;29;20211;-71
2021/12/26 02:04:28;;;;;;;0.40;0.40;;;-9.90;99.90;;;;;;4929902;29;20310;-70
2021/12/26 02:06:55;;;;;;;0.40;0.40;;;-9.90;99.90;;;;;;4929269;29;20262;-70
2021/12/26 02:09:22;;;;;;;0.40;0.40;;;-9.90;99.90;;;;;;4929112;29;20223;-70
2021/12/26 02:11:50;;;;;;;0.40;0.40;;;-9.80;99.90;;;;;;4931046;29;20227;-70
2021/12/26 02:14:20;;;;;;;0.50;0.50;;;-9.70;99.90;;;;;;4927926;29;20203;-71
2021/12/26 02:17:06;;;;;;;0.40;0.40;;;-9.70;99.90;;;;;;4930107;29;20226;-70
2021/12/26 02:19:33;;;;;;;0.40;0.40;;;-9.70;99.90;;;;;;4929621;29;20207;-71
2021/12/26 02:22:09;;;;;;;0.40;0.40;;;-9.70;99.90;;;;;;4928986;29;20256;-69
2021/12/26 02:25:09;;;;;;;0.40;0.40;;;-9.70;99.90;;;;;;4928459;29;20206;-71
2021/12/26 02:27:42;;;;;;;0.40;0.40;;;-9.80;99.90;;;;;;4942168;28;20298;-70
2021/12/26 02:30:14;;;;;;;0.40;0.40;;;-9.80;99.90;;;;;;4930114;29;20234;-71
2021/12/26 02:32:46;;;;;;;0.40;0.40;;;-9.90;99.90;;;;;;4929056;29;20202;-71
2021/12/26 02:35:14;;;;;;;0.40;0.40;;;-9.90;99.90;;;;;;4930191;29;20738;-71
2021/12/26 02:37:42;;;;;;;0.40;0.40;;;-9.90;99.90;;;;;;4929842;28;20215;-71
2021/12/26 02:40:11;;;;;;;0.40;0.40;;;-9.90;99.90;;;;;;4926970;29;20204;-70
2021/12/26 02:42:38;;;;;;;0.40;0.40;;;-9.90;99.90;;;;;;4942280;28;20258;-71
2021/12/26 02:45:06;;;;;;;0.40;0.40;;;-9.90;99.90;;;;;;4931044;29;20199;-70
2021/12/26 02:47:36;;;;;;;0.47;0.47;;;-10.00;99.90;;;;;;4928772;29;20212;-71
2021/12/26 02:50:07;;;;;;;0.40;0.40;;;-9.90;99.90;;;;;;4930399;29;20255;-71
2021/12/26 02:52:34;;;;;;;0.40;0.40;;;-9.90;99.90;;;;;;4932440;28;20652;-71
2021/12/26 02:55:04;;;;;;;0.50;0.50;;;-9.90;99.90;;;;;;4930001;29;20207;-70
2021/12/26 02:57:31;;;;;;;0.40;0.40;;;-9.80;99.90;;;;;;4929020;29;20199;-70
2021/12/26 03:00:01;;;;;;;0.40;0.40;;;-9.80;99.90;;;;;;4925896;29;20278;-71
2021/12/26 03:02:28;;;;;;;0.47;0.47;;;-9.80;99.90;;;;;;4927975;29;20214;-71
2021/12/26 03:04:56;;;;;;;0.40;0.40;;;-9.80;99.90;;;;;;4927831;29;20271;-71
2021/12/26 03:07:23;;;;;;;0.40;0.40;;;-9.70;99.90;;;;;;4927801;29;20231;-69
2021/12/26 03:09:58;;;;;;;0.40;0.40;;;-9.70;99.90;;;;;;4928301;29;20255;-71
2021/12/26 03:12:27;;;;;;;0.50;0.50;;;-9.80;99.90;;;;;;4927210;29;20211;-68
2021/12/26 03:14:54;;;;;;;0.40;0.40;;;-9.80;99.90;;;;;;4929252;29;20203;-68
2021/12/26 03:17:21;;;;;;;0.40;0.40;;;-9.80;99.90;;;;;;4927271;29;20274;-71
2021/12/26 03:19:48;;;;;;;0.40;0.40;;;-9.80;99.90;;;;;;4927716;29;20199;-70
2021/12/26 03:22:15;;;;;;;0.50;0.50;;;-9.80;99.90;;;;;;4927976;29;20212;-70
2021/12/26 03:24:43;;;;;;;0.40;0.40;;;-9.80;99.90;;;;;;4927328;29;20290;-70
2021/12/26 03:27:10;;;;;;;0.40;0.40;;;-9.90;99.90;;;;;;4943366;28;20203;-70
2021/12/26 03:29:39;;;;;;;0.50;0.50;;;-9.90;99.90;;;;;;4926502;29;20274;-71
2021/12/26 03:32:14;;;;;;;0.40;0.40;;;-10.00;99.90;;;;;;4927701;29;20237;-70
2021/12/26 03:34:46;;;;;;;0.40;0.40;;;-10.00;99.90;;;;;;4926297;29;20203;-70
2021/12/26 03:37:13;;;;;;;0.40;0.40;;;-10.00;99.90;;;;;;4923896;29;20210;-70
2021/12/26 03:39:40;;;;;;;0.40;0.40;;;-10.00;99.90;;;;;;4928556;29;20215;-71
2021/12/26 03:42:08;;;;;;;0.45;0.45;;;-10.00;99.90;;;;;;4930360;29;20245;-71
2021/12/26 03:44:37;;;;;;;0.50;0.50;;;-10.10;99.90;;;;;;4931442;29;20204;-69
2021/12/26 03:47:06;;;;;;;0.40;0.40;;;-10.20;99.90;;;;;;4927736;29;20208;-71
2021/12/26 03:49:33;;;;;;;0.50;0.50;;;-10.30;99.90;;;;;;4933189;29;20223;-71
2021/12/26 03:52:01;;;;;;;0.40;0.40;;;-10.30;99.90;;;;;;4928881;29;20273;-68
2021/12/26 03:54:27;;;;;;;0.40;0.40;;;-10.30;99.90;;;;;;4924911;29;20292;-71
2021/12/26 03:56:55;;;;;;;0.50;0.50;;;-10.40;99.90;;;;;;4927722;29;20210;-71
2021/12/26 03:59:26;;;;;;;0.40;0.40;;;-10.30;99.90;;;;;;4928587;29;20281;-71
2021/12/26 04:01:54;;;;;;;0.40;0.40;;;-10.30;99.90;;;;;;4924144;29;20224;-70
2021/12/26 04:04:22;;;;;;;0.40;0.40;;;-10.20;99.90;;;;;;4927663;29;20199;-71
2021/12/26 04:06:49;;;;;;;0.40;0.40;;;-10.20;99.90;;;;;;4927776;29;20215;-70
2021/12/26 04:09:17;;;;;;;0.50;0.50;;;-10.30;99.90;;;;;;4929415;29;20349;-70
2021/12/26 04:11:45;;;;;;;0.47;0.47;;;-10.30;99.90;;;;;;4927148;29;20306;-71
2021/12/26 04:14:13;;;;;;;0.50;0.50;;;-10.30;99.90;;;;;;4923798;29;20227;-71
2021/12/26 04:16:40;;;;;;;0.43;0.43;;;-10.30;99.90;;;;;;4927653;29;20294;-70
2021/12/26 04:19:07;;;;;;;0.40;0.40;;;-10.40;99.90;;;;;;4926577;29;20227;-71
2021/12/26 04:21:35;;;;;;;0.45;0.45;;;-10.40;99.90;;;;;;4927810;29;20227;-71
2021/12/26 04:24:04;;;;;;;0.50;0.50;;;-10.30;99.90;;;;;;4925807;29;20207;-71
2021/12/26 04:26:32;;;;;;;0.50;0.50;;;-10.30;99.90;;;;;;4928859;29;20255;-69
2021/12/26 04:29:00;;;;;;;0.50;0.50;;;-10.30;99.90;;;;;;4923755;29;20243;-71
2021/12/26 04:31:27;;;;;;;0.50;0.50;;;-10.30;99.90;;;;;;4928256;29;20220;-70
2021/12/26 04:33:54;;;;;;;0.40;0.40;;;-10.30;99.90;;;;;;4927362;29;20195;-70
2021/12/26 04:36:21;;;;;;;0.50;0.50;;;-10.30;99.90;;;;;;4926971;29;20299;-71
2021/12/26 04:38:50;;;;;;;0.40;0.40;;;-10.30;99.90;;;;;;4928499;29;20199;-70
2021/12/26 04:41:17;;;;;;;0.40;0.40;;;-10.30;99.90;;;;;;4927585;29;20238;-71
2021/12/26 04:44:13;;;;;;;0.45;0.45;;;-10.40;99.90;;;;;;4925497;29;20219;-71
2021/12/26 04:46:48;;;;;;;0.40;0.40;;;-10.40;99.90;;;;;;4924052;29;20262;-70
2021/12/26 04:49:23;;;;;;;0.60;0.60;;;-10.50;99.90;;;;;;4923495;29;20230;-71
2021/12/26 04:51:50;;;;;;;0.47;0.47;;;-10.60;99.90;;;;;;4928683;29;20231;-70
2021/12/26 04:54:18;;;;;;;0.40;0.40;;;-10.60;99.90;;;;;;4927297;29;20211;-71
2021/12/26 04:56:46;;;;;;;0.40;0.40;;;-10.60;99.90;;;;;;4927572;29;20206;-71
2021/12/26 04:59:13;;;;;;;0.50;0.50;;;-10.70;99.90;;;;;;4927210;29;20205;-71
2021/12/26 05:01:41;;;;;;;0.40;0.40;;;-10.70;99.90;;;;;;4929048;29;20251;-71
2021/12/26 05:04:10;;;;;;;0.50;0.50;;;-10.60;99.90;;;;;;4928362;29;20204;-70
2021/12/26 05:06:37;;;;;;;0.50;0.50;;;-10.60;99.90;;;;;;4927870;29;20208;-69
2021/12/26 05:09:05;;;;;;;0.50;0.50;;;-10.70;99.90;;;;;;4932152;29;20219;-70
2021/12/26 05:11:36;;;;;;;0.50;0.50;;;-10.70;99.90;;;;;;4931956;29;20229;-70
2021/12/26 05:14:04;;;;;;;0.50;0.50;;;-10.60;99.90;;;;;;4931603;29;20226;-70
2021/12/26 05:16:32;;;;;;;0.50;0.50;;;-10.70;99.90;;;;;;4930771;29;20230;-69
2021/12/26 05:19:00;;;;;;;0.50;0.50;;;-10.70;99.90;;;;;;4927709;29;20207;-71
2021/12/26 05:21:27;;;;;;;0.40;0.40;;;-10.60;99.90;;;;;;4930642;29;20223;-70
2021/12/26 05:23:54;;;;;;;0.50;0.50;;;-10.60;99.90;;;;;;4930375;29;20227;-69
2021/12/26 05:26:24;;;;;;;0.50;0.50;;;-10.60;99.90;;;;;;4930385;29;20203;-70
2021/12/26 05:28:53;;;;;;;0.50;0.50;;;-10.70;99.90;;;;;;4935501;29;20225;-69
2021/12/26 05:31:21;;;;;;;0.50;0.50;;;-10.70;99.90;;;;;;4929179;29;20254;-70
2021/12/26 05:33:49;;;;;;;0.50;0.50;;;-10.70;99.90;;;;;;4929305;29;20211;-71
2021/12/26 05:36:17;;;;;;;0.50;0.50;;;-10.80;99.90;;;;;;4935201;29;20278;-71
2021/12/26 05:38:45;;;;;;;0.40;0.40;;;-10.90;99.90;;;;;;4930150;29;20223;-71
2021/12/26 05:41:12;;;;;;;0.50;0.50;;;-10.90;99.90;;;;;;4929808;29;20239;-70
2021/12/26 05:43:48;;;;;;;0.50;0.50;;;-10.90;99.90;;;;;;4928245;29;20214;-70
2021/12/26 05:46:17;;;;;;;0.50;0.50;;;-10.90;99.90;;;;;;4927514;29;20204;-71
2021/12/26 05:48:44;;;;;;;0.50;0.50;;;-10.90;99.90;;;;;;4929765;29;20214;-68
2021/12/26 05:51:25;;;;;;;0.60;0.60;;;-10.90;99.90;;;;;;4926027;29;20322;-72
2021/12/26 05:54:21;;;;;;;0.60;0.60;;;-10.80;99.90;;;;;;4933184;28;20227;-71
2021/12/26 05:56:49;;;;;;;0.55;0.55;;;-10.80;99.90;;;;;;4928022;29;20215;-69
2021/12/26 05:59:16;;;;;;;0.60;0.60;;;-10.70;99.90;;;;;;4929898;29;20200;-71
2021/12/26 06:01:44;;;;;;;0.60;0.60;;;-10.80;99.90;;;;;;4929827;29;20255;-69
2021/12/26 06:04:12;;;;;;;0.50;0.50;;;-10.80;99.90;;;;;;4927043;29;20204;-70
2021/12/26 06:06:39;;;;;;;0.50;0.50;;;-10.70;99.90;;;;;;4929232;29;20203;-69
2021/12/26 06:09:07;;;;;;;0.50;0.50;;;-10.70;99.90;;;;;;4929353;29;20219;-70
2021/12/26 06:11:36;;;;;;;0.60;0.60;;;-10.70;99.90;;;;;;4929131;29;20255;-70
2021/12/26 06:14:03;;;;;;;0.50;0.50;;;-10.70;99.90;;;;;;4929179;29;20207;-70
2021/12/26 06:16:30;;;;;;;0.50;0.50;;;-10.70;99.90;;;;;;4929589;29;20207;-71
2021/12/26 06:18:59;;;;;;;0.50;0.50;;;-10.70;99.90;;;;;;4927053;29;20685;-69
2021/12/26 06:22:02;;;;;;;0.60;0.60;;;-10.80;99.90;;;;;;4930027;29;20226;-70
2021/12/26 06:24:44;;;;;;;0.52;0.52;;;-10.80;99.90;;;;;;4929185;29;20203;-71
2021/12/26 06:27:23;;;;;;;0.50;0.50;;;-10.90;99.90;;;;;;4926463;29;20213;-68
2021/12/26 06:30:14;;;;;;;0.50;0.50;;;-10.90;99.90;;;;;;4929036;29;20294;-71
2021/12/26 06:32:59;;;;;;;0.50;0.50;;;-10.90;99.90;;;;;;4933694;29;20214;-70
2021/12/26 06:36:00;;;;;;;0.50;0.50;;;-10.80;99.90;;;;;;4908771;29;20230;-71
2021/12/26 06:39:06;;;;;;;0.60;0.60;;;-10.90;99.90;;;;;;4926463;29;20199;-68
2021/12/26 06:41:51;;;;;;;0.50;0.50;;;-10.90;99.90;;;;;;4927834;29;20352;-71
2021/12/26 06:44:37;;;;;;;0.50;0.50;;;-10.90;99.90;;;;;;4928530;29;20257;-71
2021/12/26 06:47:14;;;;;;;0.60;0.60;;;-10.90;99.90;;;;;;4924148;29;20298;-71
2021/12/26 06:49:42;;;;;;;0.50;0.50;;;-10.80;99.90;;;;;;4931654;29;20275;-71
2021/12/26 06:52:11;;;;;;;0.50;0.50;;;-10.80;99.90;;;;;;4926276;29;20704;-71
2021/12/26 06:54:40;;;;;;;0.50;0.50;;;-10.80;99.90;;;;;;4929657;29;20348;-71
2021/12/26 06:57:08;;;;;;;0.50;0.50;;;-10.80;99.90;;;;;;4930115;29;20285;-70
2021/12/26 06:59:34;;;;;;;0.50;0.50;;;-10.90;99.90;;;;;;4931193;29;20259;-70
2021/12/26 07:02:02;;;;;;;0.50;0.50;;;-10.90;99.90;;;;;;4929434;29;20314;-71
2021/12/26 07:04:47;;;;;;;0.60;0.60;;;-10.80;99.90;;;;;;4934288;29;20215;-71
2021/12/26 07:07:17;;;;;;;0.60;0.60;;;-10.80;99.90;;;;;;4933403;29;20294;-72
2021/12/26 07:09:44;;;;;;;0.50;0.50;;;-10.80;99.90;;;;;;4930494;29;20228;-71
2021/12/26 07:12:15;;;;;;;0.50;0.50;;;-10.80;99.90;;;;;;4927002;29;20223;-71
2021/12/26 07:14:53;;;;;;;0.60;0.60;;;-10.80;99.90;;;;;;4929027;29;20282;-69
2021/12/26 07:17:20;;;;;;;0.50;0.50;;;-10.90;99.90;;;;;;4929051;29;20207;-71
2021/12/26 07:19:51;;;;;;;0.50;0.50;;;-10.90;99.90;;;;;;4928598;29;20231;-71
2021/12/26 07:22:44;;;;;;;0.60;0.60;;;-11.00;99.90;;;;;;4928574;29;20214;-71
2021/12/26 07:25:11;;;;;;;0.60;0.60;;;-11.00;99.90;;;;;;4928741;29;20196;-71
2021/12/26 07:27:38;;;;;;;0.60;0.60;;;-11.10;99.90;;;;;;4928540;29;20219;-70
2021/12/26 07:30:26;;;;;;;0.60;0.60;;;-11.10;99.90;;;;;;4925223;29;20320;-71
2021/12/26 07:32:53;;;;;;;0.60;0.60;;;-11.10;99.90;;;;;;4928098;29;20246;-69
2021/12/26 07:35:20;;;;;;;0.60;0.60;;;-11.10;99.90;;;;;;4926119;29;20200;-71
2021/12/26 07:37:49;;;;;;;0.50;0.50;;;-11.10;99.90;;;;;;4943549;28;20215;-71
2021/12/26 07:40:16;;;;;;;0.50;0.50;;;-11.10;99.90;;;;;;4926002;29;20317;-71
2021/12/26 07:42:45;;;;;;;0.60;0.60;;;-11.10;99.90;;;;;;4929199;29;20211;-71
2021/12/26 07:45:35;;;;;;;0.50;0.50;;;-11.00;99.90;;;;;;4928312;29;20209;-71
2021/12/26 07:48:05;;;;;;;0.50;0.50;;;-11.00;99.90;;;;;;4927902;29;20265;-71
2021/12/26 07:50:34;;;;;;;0.60;0.60;;;-11.00;99.90;;;;;;4923378;29;20236;-71
2021/12/26 07:53:21;;;;;;;0.50;0.50;;;-11.00;99.90;;;;;;4929756;29;20214;-71
2021/12/26 07:56:06;;;;;;;0.50;0.50;;;-11.00;99.90;;;;;;4929837;29;20266;-71
2021/12/26 07:58:52;;;;;;;0.52;0.52;;;-11.00;99.90;;;;;;4929313;29;20217;-71
2021/12/26 08:01:40;;;;;;;0.60;0.60;;;-11.00;99.90;;;;;;4926827;29;20216;-71
2021/12/26 08:04:31;;;;;;;0.57;0.57;;;-11.00;99.90;;;;;;4921224;29;20203;-71
2021/12/26 08:07:17;;;;;;;0.55;0.55;;;-10.90;99.90;;;;;;4928546;29;20214;-71
2021/12/26 08:09:45;;;;;;;0.50;0.50;;;-10.80;99.90;;;;;;4941824;28;20728;-71
2021/12/26 08:12:13;;;;;;;0.50;0.50;;;-10.80;99.90;;;;;;4929497;29;20215;-71
2021/12/26 08:14:40;;;;;;;0.60;0.60;;;-10.70;99.90;;;;;;4927542;29;20195;-70
2021/12/26 08:17:07;;;;;;;0.50;0.50;;;-10.70;99.90;;;;;;4930288;29;20195;-71
2021/12/26 08:19:34;;;;;;;0.50;0.50;;;-10.60;99.90;;;;;;4929641;29;20200;-71
2021/12/26 08:22:01;;;;;;;0.50;0.50;;;-10.50;99.90;;;;;;4928155;29;20219;-70
2021/12/26 08:24:28;;;;;;;0.57;0.57;;;-10.40;99.90;;;;;;4926973;29;20211;-68
2021/12/26 08:26:56;;;;;;;0.50;0.50;;;-10.20;99.90;;;;;;4943510;28;20207;-70
2021/12/26 08:29:23;;;;;;;0.50;0.50;;;-10.00;99.90;;;;;;4927962;29;20207;-71
2021/12/26 08:31:53;;;;;;;0.60;0.60;;;-9.90;99.90;;;;;;4929359;29;20238;-70
2021/12/26 08:34:22;;;;;;;0.43;0.43;;;-9.70;99.90;;;;;;4926102;29;20295;-71
2021/12/26 08:36:57;;;;;;;0.40;0.40;;;-9.60;99.90;;;;;;4927211;29;20207;-70
2021/12/26 08:39:25;;;;;;;0.57;0.57;;;-9.40;99.90;;;;;;4930033;29;20225;-71
2021/12/26 08:41:52;;;;;;;0.50;0.50;;;-9.20;99.90;;;;;;4930397;29;20227;-72
2021/12/26 08:44:20;;;;;;;0.50;0.50;;;-9.10;99.90;;;;;;4929260;29;20211;-72
2021/12/26 08:46:47;;;;;;;0.50;0.50;;;-9.00;99.90;;;;;;4931196;29;20596;-69
2021/12/26 08:49:14;;;;;;;0.43;0.43;;;-8.90;99.90;;;;;;4928964;29;20262;-72
2021/12/26 08:51:42;;;;;;;0.50;0.50;;;-8.80;99.90;;;;;;4932445;29;20230;-72
2021/12/26 08:54:09;;;;;;;0.50;0.50;;;-8.70;99.90;;;;;;4931154;29;20243;-71
2021/12/26 08:56:38;;;;;;;0.50;0.50;;;-8.70;99.90;;;;;;4939380;28;24168;-70
2021/12/26 08:59:05;;;;;;;0.40;0.40;;;-8.70;99.90;;;;;;4926671;29;20725;-71
2021/12/26 09:01:35;;;;;;;0.40;0.40;;;-8.70;99.90;;;;;;4933690;29;20282;-73
2021/12/26 09:04:02;;;;;;;0.50;0.50;;;-8.60;99.90;;;;;;4927640;29;20207;-72
2021/12/26 09:06:29;;;;;;;0.50;0.50;;;-8.50;99.90;;;;;;4932454;29;20259;-71
2021/12/26 09:08:57;;;;;;;0.40;0.40;;;-8.40;99.90;;;;;;4931751;29;20211;-71
2021/12/26 09:11:24;;;;;;;0.40;0.40;;;-8.30;99.90;;;;;;4931435;29;20227;-72
2021/12/26 09:13:51;;;;;;;0.40;0.40;;;-8.20;99.90;;;;;;4931241;29;20207;-71
2021/12/26 09:16:18;;;;;;;0.40;0.40;;;-8.10;99.90;;;;;;4931696;29;20219;-71
2021/12/26 09:18:46;;;;;;;0.45;0.45;;;-8.00;99.90;;;;;;4929047;29;20700;-71
2021/12/26 09:21:13;;;;;;;0.40;0.40;;;-8.00;99.90;;;;;;4928950;29;20223;-71
2021/12/26 09:23:41;;;;;;;0.40;0.40;;;-8.00;99.90;;;;;;4931014;29;20211;-72
2021/12/26 09:26:08;;;;;;;0.40;0.40;;;-8.00;99.90;;;;;;4932002;29;20202;-72
2021/12/26 09:28:38;;;;;;;0.40;0.40;;;-7.90;99.90;;;;;;4933293;29;20200;-71
2021/12/26 09:31:06;;;;;;;0.30;0.30;;;-7.90;99.90;;;;;;4925066;29;20280;-72
2021/12/26 09:33:33;;;;;;;0.40;0.40;;;-7.90;99.90;;;;;;4931784;29;20274;-71
2021/12/26 09:36:02;;;;;;;0.50;0.50;;;-7.80;99.90;;;;;;4931820;29;20292;-71
2021/12/26 09:38:29;;;;;;;0.30;0.30;;;-7.60;99.90;;;;;;4929812;29;20211;-71
2021/12/26 09:40:56;;;;;;;0.40;0.40;;;-7.50;99.90;;;;;;4931635;29;20615;-71
2021/12/26 09:43:24;;;;;;;0.50;0.50;;;-7.40;99.90;;;;;;4930989;29;20203;-72
2021/12/26 09:45:51;;;;;;;0.40;0.40;;;-7.30;99.90;;;;;;4930986;28;20211;-71
2021/12/26 09:48:19;;;;;;;0.40;0.40;;;-7.10;99.90;;;;;;4927457;29;20207;-72
2021/12/26 09:50:47;;;;;;;0.40;0.40;;;-7.00;99.90;;;;;;4929839;28;20266;-71
2021/12/26 09:53:16;;;;;;;0.47;0.47;;;-6.90;99.90;;;;;;4924034;29;20227;-71
2021/12/26 09:55:43;;;;;;;0.40;0.40;;;-6.70;99.90;;;;;;4931498;29;20195;-72
2021/12/26 09:58:10;;;;;;;0.40;0.40;;;-6.60;99.90;;;;;;4930165;29;20199;-72
2021/12/26 10:00:41;;;;;;;0.40;0.40;;;-6.40;99.90;;;;;;4926972;29;20226;-70
2021/12/26 10:03:09;;;;;;;0.30;0.30;;;-6.20;99.90;;;;;;4925337;29;20207;-74
2021/12/26 10:06:11;;;;;;;0.40;0.40;;;-6.10;99.90;;;;;;4931354;29;20266;-70
2021/12/26 10:08:57;;;;;;;0.40;0.40;;;-6.00;99.90;;;;;;4929189;29;20206;-72
2021/12/26 10:11:26;;;;;;;0.30;0.30;;;-5.90;99.90;;;;;;4925473;29;20230;-72
2021/12/26 10:13:56;;;;;;;0.30;0.30;;;-5.70;99.90;;;;;;4928650;29;20207;-69
2021/12/26 10:16:25;;;;;;;0.40;0.40;;;-5.60;99.90;;;;;;4928869;29;20235;-72
2021/12/26 10:18:53;;;;;;;0.30;0.30;;;-5.60;99.90;;;;;;4930180;29;20203;-72
2021/12/26 10:21:34;;;;;;;0.30;0.30;;;-5.50;99.90;;;;;;4926866;29;20219;-72
2021/12/26 10:24:06;;;;;;;0.30;0.30;;;-5.60;99.90;;;;;;4930590;29;20310;-72
2021/12/26 10:26:36;;;;;;;0.40;0.40;;;-5.50;99.90;;;;;;4927709;29;20207;-72
2021/12/26 10:29:08;;;;;;;0.30;0.30;;;-5.50;99.90;;;;;;4929076;29;20196;-70
2021/12/26 10:31:38;;;;;;;0.30;0.30;;;-5.40;99.90;;;;;;4941015;28;20230;-71
2021/12/26 10:34:05;;;;;;;0.38;0.38;;;-5.30;99.90;;;;;;4927370;29;20220;-71
2021/12/26 10:36:44;;;;;;;0.40;0.40;;;-5.20;99.90;;;;;;4925437;29;20250;-70
2021/12/26 10:39:17;;;;;;;0.30;0.30;;;-5.20;99.90;;;;;;4928423;29;20199;-72
2021/12/26 10:41:46;;;;;;;0.30;0.30;;;-5.10;99.90;;;;;;4930581;28;20227;-72
2021/12/26 10:44:26;;;;;;;0.30;0.30;;;-4.90;99.90;;;;;;4929670;29;20207;-71
2021/12/26 10:46:55;;;;;;;0.30;0.30;;;-4.70;99.90;;;;;;4928871;29;20214;-72
2021/12/26 10:49:26;;;;;;;0.30;0.30;;;-4.50;99.90;;;;;;4922825;29;20266;-71
2021/12/26 10:51:53;;;;;;;0.30;0.30;;;-4.40;99.90;;;;;;4924576;29;20246;-74
2021/12/26 10:54:25;;;;;;;0.30;0.30;;;-4.40;99.90;;;;;;4928914;29;20206;-72
2021/12/26 10:57:10;;;;;;;0.30;0.30;;;-4.30;99.90;;;;;;4931214;28;21147;-72
2021/12/26 10:59:39;;;;;;;0.32;0.32;;;-4.30;99.90;;;;;;4926345;29;20207;-72
2021/12/26 11:02:07;;;;;;;0.30;0.30;;;-4.20;99.90;;;;;;4927580;29;20222;-71
2021/12/26 11:04:35;;;;;;;0.30;0.30;;;-4.20;99.90;;;;;;4928471;29;20195;-72
2021/12/26 11:07:04;;;;;;;0.30;0.30;;;-4.20;99.90;;;;;;4923271;29;20236;-72
2021/12/26 11:09:32;;;;;;;0.43;0.43;;;-4.20;99.90;;;;;;4933072;28;20211;-72
2021/12/26 11:12:02;;;;;;;0.30;0.30;;;-4.20;99.90;;;;;;4925989;29;20247;-72
2021/12/26 11:14:29;;;;;;;0.30;0.30;;;-4.20;99.90;;;;;;4926854;29;20693;-71
2021/12/26 11:16:57;;;;;;;0.30;0.30;;;-4.20;99.90;;;;;;4944262;28;20222;-71
2021/12/26 11:19:42;;;;;;;0.30;0.30;;;-4.20;99.90;;;;;;4924859;29;20282;-72
2021/12/26 11:22:09;;;;;;;0.30;0.30;;;-4.30;99.90;;;;;;4925110;29;20218;-71
2021/12/26 11:24:38;;;;;;;0.30;0.30;;;-4.40;99.90;;;;;;4932914;28;20321;-72
2021/12/26 11:27:06;;;;;;;0.30;0.30;;;-4.40;99.90;;;;;;4928715;29;20207;-72
2021/12/26 11:29:33;;;;;;;0.38;0.38;;;-4.40;99.90;;;;;;4927881;29;20207;-71
2021/12/26 11:32:00;;;;;;;0.30;0.30;;;-4.40;99.90;;;;;;4928526;29;20223;-70
2021/12/26 11:34:30;;;;;;;0.30;0.30;;;-4.40;99.90;;;;;;4929702;29;20215;-71
2021/12/26 11:36:58;;;;;;;0.30;0.30;;;-4.30;99.90;;;;;;4925391;29;20195;-71
2021/12/26 11:39:46;;;;;;;0.30;0.30;;;-4.40;99.90;;;;;;4929321;29;20218;-71
2021/12/26 11:43:25;;;;;;;0.30;0.30;;;-4.50;99.90;;;;;;4922314;29;20230;-70
2021/12/26 11:46:33;;;;;;;0.30;0.30;;;-4.70;99.90;;;;;;4928156;29;21810;-71
2021/12/26 11:50:05;;;;;;;0.30;0.30;;;-4.80;99.90;;;;;;4927886;29;20206;-70
2021/12/26 11:53:43;;;;;;;0.30;0.30;;;-4.80;99.90;;;;;;4928340;29;20334;-72
2021/12/26 11:56:35;;;;;;;0.30;0.30;;;-4.90;99.90;;;;;;4943537;28;20218;-70
2021/12/26 11:59:30;;;;;;;0.30;0.30;;;-4.90;99.90;;;;;;4927358;29;20213;-71
2021/12/26 12:01:58;;;;;;;0.35;0.35;;;-4.90;99.90;;;;;;4927873;29;20222;-72
2021/12/26 12:04:26;;;;;;;0.30;0.30;;;-4.80;99.90;;;;;;4925822;29;20241;-71
2021/12/26 12:06:57;;;;;;;0.38;0.38;;;-4.70;99.90;;;;;;4940552;28;20677;-69
2021/12/26 12:09:26;;;;;;;0.30;0.30;;;-4.60;99.90;;;;;;4927131;29;20199;-70
2021/12/26 12:12:04;;;;;;;0.30;0.30;;;-4.40;99.90;;;;;;4927460;29;20236;-70
2021/12/26 12:14:53;;;;;;;0.30;0.30;;;-4.40;99.90;;;;;;4926410;29;20222;-72
2021/12/26 12:17:23;;;;;;;0.20;0.20;;;-4.30;99.90;;;;;;4932445;29;20222;-69
2021/12/26 12:20:12;;;;;;;0.30;0.30;;;-4.30;99.90;;;;;;4929183;29;20199;-71
2021/12/26 12:22:59;;;;;;;0.30;0.30;;;-4.30;99.90;;;;;;4928439;29;20298;-70
2021/12/26 12:25:39;;;;;;;0.30;0.30;;;-4.30;99.90;;;;;;4928452;29;20262;-71
2021/12/26 12:28:10;;;;;;;0.30;0.30;;;-4.40;99.90;;;;;;4927675;29;20217;-70
2021/12/26 12:30:39;;;;;;;0.30;0.30;;;-4.40;99.90;;;;;;4926562;29;20226;-69
2021/12/26 12:33:18;;;;;;;0.30;0.30;;;-4.40;99.90;;;;;;4945661;28;20225;-68
2021/12/26 12:35:50;;;;;;;0.30;0.30;;;-4.40;99.90;;;;;;4928403;29;20294;-71
2021/12/26 12:38:32;;;;;;;0.30;0.30;;;-4.40;99.90;;;;;;4945006;28;20231;-70
2021/12/26 12:41:00;;;;;;;0.38;0.38;;;-4.40;99.90;;;;;;4925619;29;20321;-68
2021/12/26 12:43:30;;;;;;;0.30;0.30;;;-4.30;99.90;;;;;;4926924;29;20200;-71
2021/12/26 12:46:11;;;;;;;0.30;0.30;;;-4.30;99.90;;;;;;4929557;29;20254;-70
2021/12/26 12:48:42;;;;;;;0.30;0.30;;;-4.20;99.90;;;;;;4926308;29;20645;-70
2021/12/26 12:51:46;;;;;;;0.30;0.30;;;-4.20;99.90;;;;;;4927398;29;20227;-71
2021/12/26 12:54:30;;;;;;;0.30;0.30;;;-4.10;99.90;;;;;;4924671;29;20210;-69
2021/12/26 12:57:00;;;;;;;0.30;0.30;;;-4.10;99.90;;;;;;4922542;29;20207;-71
2021/12/26 12:59:32;;;;;;;0.30;0.30;;;-4.10;99.90;;;;;;4927916;29;20706;-70
2021/12/26 13:02:01;;;;;;;0.30;0.30;;;-4.00;99.90;;;;;;4930090;29;20224;-69
2021/12/26 13:04:30;;;;;;;0.30;0.30;;;-4.00;99.90;;;;;;4929632;29;20196;-69
2021/12/26 13:06:59;;;;;;;0.30;0.30;;;-3.90;99.90;;;;;;4929438;29;20230;-70
2021/12/26 13:09:27;;;;;;;0.30;0.30;;;-3.80;99.90;;;;;;4929392;29;20225;-69